< < Back
Terminal Aerodrome Forecast


Current Version              Previous Versions:   1  2  3  4  5  6  7  8  9  

Terminal Aerodrome Forecast

811
FTUS42 KTAE 292321
TAFVLD
TAF
KVLD 292321Z 3000/3024 VRB03KT P6SM OVC100
     FM300800 00000KT 3SM BR BKN003
     FM301400 08004KT P6SM SCT010 BKN040
     FM301800 09007KT P6SM VCTS SCT040CB
      TEMPO 3019/3023 VRB10G20KT 3SM TSRA=

Latest METAR

865
SAUS70 KWBC 300700
MTRVLD
METAR KVLD 300653Z AUTO 00000KT 10SM CLR 23/22 A3003 RMK AO2 SLP176
T02280222


USA.gov is the U.S. government's official web portal to all federal, state and local government web resources and services.